sensor_id;sensor_type;location;lat;lon;timestamp;temperature;humidity
8463;DHT22;4268;52.506;13.462;2022-07-23T00:00:53;19.70;99.90
8463;DHT22;4268;52.506;13.462;2022-07-23T00:03:19;19.70;99.90
8463;DHT22;4268;52.506;13.462;2022-07-23T00:05:44;19.70;99.90
8463;DHT22;4268;52.506;13.462;2022-07-23T00:08:10;19.70;99.90
8463;DHT22;4268;52.506;13.462;2022-07-23T00:10:35;19.60;99.90
8463;DHT22;4268;52.506;13.462;2022-07-23T00:13:01;19.60;99.90
8463;DHT22;4268;52.506;13.462;2022-07-23T00:15:27;19.60;99.90
8463;DHT22;4268;52.506;13.462;2022-07-23T00:17:52;19.50;99.90
8463;DHT22;4268;52.506;13.462;2022-07-23T00:20:18;19.50;99.90
8463;DHT22;4268;52.506;13.462;2022-07-23T00:22:51;19.50;99.90
8463;DHT22;4268;52.506;13.462;2022-07-23T00:25:17;19.50;99.90
8463;DHT22;4268;52.506;13.462;2022-07-23T00:27:43;19.50;99.90
8463;DHT22;4268;52.506;13.462;2022-07-23T00:30:09;19.50;99.90
8463;DHT22;4268;52.506;13.462;2022-07-23T00:32:55;19.50;99.90
8463;DHT22;4268;52.506;13.462;2022-07-23T00:35:23;19.50;99.90
8463;DHT22;4268;52.506;13.462;2022-07-23T00:37:49;19.50;99.90
8463;DHT22;4268;52.506;13.462;2022-07-23T00:40:15;19.50;99.90
8463;DHT22;4268;52.506;13.462;2022-07-23T00:42:41;19.40;99.90
8463;DHT22;4268;52.506;13.462;2022-07-23T00:45:07;19.40;99.90
8463;DHT22;4268;52.506;13.462;2022-07-23T00:47:32;19.40;99.90
8463;DHT22;4268;52.506;13.462;2022-07-23T00:49:58;19.40;99.90
8463;DHT22;4268;52.506;13.462;2022-07-23T00:52:24;19.40;99.90
8463;DHT22;4268;52.506;13.462;2022-07-23T00:54:50;19.40;99.90
8463;DHT22;4268;52.506;13.462;2022-07-23T00:57:16;19.40;99.90
8463;DHT22;4268;52.506;13.462;2022-07-23T00:59:41;19.30;99.90
8463;DHT22;4268;52.506;13.462;2022-07-23T01:02:07;19.30;99.90
8463;DHT22;4268;52.506;13.462;2022-07-23T01:04:33;19.30;99.90
8463;DHT22;4268;52.506;13.462;2022-07-23T01:06:59;19.20;99.90
8463;DHT22;4268;52.506;13.462;2022-07-23T01:09:25;19.30;99.90
8463;DHT22;4268;52.506;13.462;2022-07-23T01:11:51;19.30;99.90
8463;DHT22;4268;52.506;13.462;2022-07-23T01:14:19;19.30;99.90
8463;DHT22;4268;52.506;13.462;2022-07-23T01:16:46;19.30;99.90
8463;DHT22;4268;52.506;13.462;2022-07-23T01:19:12;19.20;99.90
8463;DHT22;4268;52.506;13.462;2022-07-23T01:21:43;19.20;99.90
8463;DHT22;4268;52.506;13.462;2022-07-23T01:24:10;19.20;99.90
8463;DHT22;4268;52.506;13.462;2022-07-23T01:26:37;19.20;99.90
8463;DHT22;4268;52.506;13.462;2022-07-23T01:29:04;19.20;99.90
8463;DHT22;4268;52.506;13.462;2022-07-23T01:31:30;19.20;99.90
8463;DHT22;4268;52.506;13.462;2022-07-23T01:33:55;19.10;99.90
8463;DHT22;4268;52.506;13.462;2022-07-23T01:36:21;19.10;99.90
8463;DHT22;4268;52.506;13.462;2022-07-23T01:38:47;18.90;99.90
8463;DHT22;4268;52.506;13.462;2022-07-23T01:41:13;18.90;99.90
8463;DHT22;4268;52.506;13.462;2022-07-23T01:43:38;19.00;99.90
8463;DHT22;4268;52.506;13.462;2022-07-23T01:46:04;19.00;99.90
8463;DHT22;4268;52.506;13.462;2022-07-23T01:48:30;18.90;99.90
8463;DHT22;4268;52.506;13.462;2022-07-23T01:50:55;18.90;99.90
8463;DHT22;4268;52.506;13.462;2022-07-23T01:53:21;18.90;99.90
8463;DHT22;4268;52.506;13.462;2022-07-23T01:55:46;18.90;99.90
8463;DHT22;4268;52.506;13.462;2022-07-23T01:58:12;18.80;99.90
8463;DHT22;4268;52.506;13.462;2022-07-23T02:00:37;18.80;99.90
8463;DHT22;4268;52.506;13.462;2022-07-23T02:03:03;18.80;99.90
8463;DHT22;4268;52.506;13.462;2022-07-23T02:05:28;18.80;99.90
8463;DHT22;4268;52.506;13.462;2022-07-23T02:07:55;18.80;99.90
8463;DHT22;4268;52.506;13.462;2022-07-23T02:10:21;18.70;99.90
8463;DHT22;4268;52.506;13.462;2022-07-23T02:12:46;19.30;99.90
8463;DHT22;4268;52.506;13.462;2022-07-23T02:15:12;18.80;99.90
8463;DHT22;4268;52.506;13.462;2022-07-23T02:17:38;18.70;99.90
8463;DHT22;4268;52.506;13.462;2022-07-23T02:20:04;18.70;99.90
8463;DHT22;4268;52.506;13.462;2022-07-23T02:22:30;18.70;99.90
8463;DHT22;4268;52.506;13.462;2022-07-23T02:24:56;18.70;99.90
8463;DHT22;4268;52.506;13.462;2022-07-23T02:27:21;18.70;99.90
8463;DHT22;4268;52.506;13.462;2022-07-23T02:29:48;18.70;99.90
8463;DHT22;4268;52.506;13.462;2022-07-23T02:32:14;18.70;99.90
8463;DHT22;4268;52.506;13.462;2022-07-23T02:34:39;18.60;99.90
8463;DHT22;4268;52.506;13.462;2022-07-23T02:37:05;18.60;99.90
8463;DHT22;4268;52.506;13.462;2022-07-23T02:39:30;18.70;99.90
8463;DHT22;4268;52.506;13.462;2022-07-23T02:41:56;18.60;99.90
8463;DHT22;4268;52.506;13.462;2022-07-23T02:44:21;18.60;99.90
8463;DHT22;4268;52.506;13.462;2022-07-23T02:46:47;18.50;99.90
8463;DHT22;4268;52.506;13.462;2022-07-23T02:49:12;18.50;99.90
8463;DHT22;4268;52.506;13.462;2022-07-23T02:51:38;18.50;99.90
8463;DHT22;4268;52.506;13.462;2022-07-23T02:54:03;18.50;99.90
8463;DHT22;4268;52.506;13.462;2022-07-23T02:56:29;18.50;99.90
8463;DHT22;4268;52.506;13.462;2022-07-23T02:58:54;18.40;99.90
8463;DHT22;4268;52.506;13.462;2022-07-23T03:01:20;18.40;99.90
8463;DHT22;4268;52.506;13.462;2022-07-23T03:03:45;18.50;99.90
8463;DHT22;4268;52.506;13.462;2022-07-23T03:06:11;18.40;99.90
8463;DHT22;4268;52.506;13.462;2022-07-23T03:08:37;18.40;99.90
8463;DHT22;4268;52.506;13.462;2022-07-23T03:11:02;18.30;99.90
8463;DHT22;4268;52.506;13.462;2022-07-23T03:13:28;18.30;99.90
8463;DHT22;4268;52.506;13.462;2022-07-23T03:15:54;18.30;99.90
8463;DHT22;4268;52.506;13.462;2022-07-23T03:18:20;18.30;99.90
8463;DHT22;4268;52.506;13.462;2022-07-23T03:20:45;18.30;99.90
8463;DHT22;4268;52.506;13.462;2022-07-23T03:23:11;18.20;99.90
8463;DHT22;4268;52.506;13.462;2022-07-23T03:25:37;18.30;99.90
8463;DHT22;4268;52.506;13.462;2022-07-23T03:28:02;18.20;99.90
8463;DHT22;4268;52.506;13.462;2022-07-23T03:30:28;18.20;99.90
8463;DHT22;4268;52.506;13.462;2022-07-23T03:32:53;18.20;99.90
8463;DHT22;4268;52.506;13.462;2022-07-23T03:35:19;18.20;99.90
8463;DHT22;4268;52.506;13.462;2022-07-23T03:37:44;18.20;99.90
8463;DHT22;4268;52.506;13.462;2022-07-23T03:40:10;18.10;99.90
8463;DHT22;4268;52.506;13.462;2022-07-23T03:42:36;18.10;99.90
8463;DHT22;4268;52.506;13.462;2022-07-23T03:45:03;18.10;99.90
8463;DHT22;4268;52.506;13.462;2022-07-23T03:47:28;18.10;99.90
8463;DHT22;4268;52.506;13.462;2022-07-23T03:49:54;18.10;99.90
8463;DHT22;4268;52.506;13.462;2022-07-23T03:52:19;18.10;99.90
8463;DHT22;4268;52.506;13.462;2022-07-23T03:54:45;18.10;99.90
8463;DHT22;4268;52.506;13.462;2022-07-23T03:57:10;18.00;99.90
8463;DHT22;4268;52.506;13.462;2022-07-23T03:59:36;18.00;99.90
8463;DHT22;4268;52.506;13.462;2022-07-23T04:02:01;18.00;99.90
8463;DHT22;4268;52.506;13.462;2022-07-23T04:04:27;17.90;99.90
8463;DHT22;4268;52.506;13.462;2022-07-23T04:06:52;17.90;99.90
8463;DHT22;4268;52.506;13.462;2022-07-23T04:09:18;17.90;99.90
8463;DHT22;4268;52.506;13.462;2022-07-23T04:11:43;17.80;99.90
8463;DHT22;4268;52.506;13.462;2022-07-23T04:14:09;17.80;99.90
8463;DHT22;4268;52.506;13.462;2022-07-23T04:16:35;17.80;99.90
8463;DHT22;4268;52.506;13.462;2022-07-23T04:19:00;17.90;99.90
8463;DHT22;4268;52.506;13.462;2022-07-23T04:21:26;17.90;99.90
8463;DHT22;4268;52.506;13.462;2022-07-23T04:23:51;17.90;99.90
8463;DHT22;4268;52.506;13.462;2022-07-23T04:26:17;17.90;99.90
8463;DHT22;4268;52.506;13.462;2022-07-23T04:28:42;17.90;99.90
8463;DHT22;4268;52.506;13.462;2022-07-23T04:31:07;17.90;99.90
8463;DHT22;4268;52.506;13.462;2022-07-23T04:33:33;17.90;99.90
8463;DHT22;4268;52.506;13.462;2022-07-23T04:35:59;17.90;99.90
8463;DHT22;4268;52.506;13.462;2022-07-23T04:38:24;17.80;99.90
8463;DHT22;4268;52.506;13.462;2022-07-23T04:40:50;17.80;99.90
8463;DHT22;4268;52.506;13.462;2022-07-23T04:43:16;17.80;99.90
8463;DHT22;4268;52.506;13.462;2022-07-23T04:45:41;17.80;99.90
8463;DHT22;4268;52.506;13.462;2022-07-23T04:48:07;17.80;99.90
8463;DHT22;4268;52.506;13.462;2022-07-23T04:50:32;17.80;99.90
8463;DHT22;4268;52.506;13.462;2022-07-23T04:52:58;17.70;99.90
8463;DHT22;4268;52.506;13.462;2022-07-23T04:55:23;17.70;99.90
8463;DHT22;4268;52.506;13.462;2022-07-23T04:57:49;17.60;99.90
8463;DHT22;4268;52.506;13.462;2022-07-23T05:00:14;18.10;99.90
8463;DHT22;4268;52.506;13.462;2022-07-23T05:02:40;17.40;99.90
8463;DHT22;4268;52.506;13.462;2022-07-23T05:05:06;17.40;99.90
8463;DHT22;4268;52.506;13.462;2022-07-23T05:07:31;17.40;99.90
8463;DHT22;4268;52.506;13.462;2022-07-23T05:09:57;17.30;99.90
8463;DHT22;4268;52.506;13.462;2022-07-23T05:12:22;17.30;99.90
8463;DHT22;4268;52.506;13.462;2022-07-23T05:14:48;17.20;99.90
8463;DHT22;4268;52.506;13.462;2022-07-23T05:17:13;17.20;99.90
8463;DHT22;4268;52.506;13.462;2022-07-23T05:19:39;17.20;99.90
8463;DHT22;4268;52.506;13.462;2022-07-23T05:22:04;17.20;99.90
8463;DHT22;4268;52.506;13.462;2022-07-23T05:24:30;17.20;99.90
8463;DHT22;4268;52.506;13.462;2022-07-23T05:26:55;17.20;99.90
8463;DHT22;4268;52.506;13.462;2022-07-23T05:29:21;17.20;99.90
8463;DHT22;4268;52.506;13.462;2022-07-23T05:31:46;17.10;99.90
8463;DHT22;4268;52.506;13.462;2022-07-23T05:34:12;17.10;99.90
8463;DHT22;4268;52.506;13.462;2022-07-23T05:36:37;17.10;99.90
8463;DHT22;4268;52.506;13.462;2022-07-23T05:39:03;17.10;99.90
8463;DHT22;4268;52.506;13.462;2022-07-23T05:41:29;17.00;99.90
8463;DHT22;4268;52.506;13.462;2022-07-23T05:43:55;16.90;99.90
8463;DHT22;4268;52.506;13.462;2022-07-23T05:46:20;16.90;99.90
8463;DHT22;4268;52.506;13.462;2022-07-23T05:48:45;16.90;99.90
8463;DHT22;4268;52.506;13.462;2022-07-23T05:51:25;17.00;99.90
8463;DHT22;4268;52.506;13.462;2022-07-23T05:53:51;17.00;99.90
8463;DHT22;4268;52.506;13.462;2022-07-23T05:56:17;17.00;99.90
8463;DHT22;4268;52.506;13.462;2022-07-23T05:58:43;17.00;99.90
8463;DHT22;4268;52.506;13.462;2022-07-23T06:01:09;17.00;99.90
8463;DHT22;4268;52.506;13.462;2022-07-23T06:03:35;17.00;99.90
8463;DHT22;4268;52.506;13.462;2022-07-23T06:06:00;16.90;99.90
8463;DHT22;4268;52.506;13.462;2022-07-23T06:08:26;17.00;99.90
8463;DHT22;4268;52.506;13.462;2022-07-23T06:10:51;17.00;99.90
8463;DHT22;4268;52.506;13.462;2022-07-23T06:13:20;16.90;99.90
8463;DHT22;4268;52.506;13.462;2022-07-23T06:15:45;16.90;99.90
8463;DHT22;4268;52.506;13.462;2022-07-23T06:18:11;16.90;99.90
8463;DHT22;4268;52.506;13.462;2022-07-23T06:20:36;16.90;99.90
8463;DHT22;4268;52.506;13.462;2022-07-23T06:23:02;16.80;99.90
8463;DHT22;4268;52.506;13.462;2022-07-23T06:25:28;16.80;99.90
8463;DHT22;4268;52.506;13.462;2022-07-23T06:27:53;16.90;99.90
8463;DHT22;4268;52.506;13.462;2022-07-23T06:30:19;16.90;99.90
8463;DHT22;4268;52.506;13.462;2022-07-23T06:32:45;16.90;99.90
8463;DHT22;4268;52.506;13.462;2022-07-23T06:35:11;16.90;99.90
8463;DHT22;4268;52.506;13.462;2022-07-23T06:37:36;17.00;99.90
8463;DHT22;4268;52.506;13.462;2022-07-23T06:40:03;17.00;99.90
8463;DHT22;4268;52.506;13.462;2022-07-23T06:42:28;17.00;99.90
8463;DHT22;4268;52.506;13.462;2022-07-23T06:44:54;17.00;99.90
8463;DHT22;4268;52.506;13.462;2022-07-23T06:47:19;17.00;99.90
8463;DHT22;4268;52.506;13.462;2022-07-23T06:49:45;17.00;99.90
8463;DHT22;4268;52.506;13.462;2022-07-23T06:52:10;17.00;99.90
8463;DHT22;4268;52.506;13.462;2022-07-23T06:54:36;17.00;99.90
8463;DHT22;4268;52.506;13.462;2022-07-23T06:57:01;17.00;99.90
8463;DHT22;4268;52.506;13.462;2022-07-23T06:59:27;17.00;99.90
8463;DHT22;4268;52.506;13.462;2022-07-23T07:01:53;17.10;99.90
8463;DHT22;4268;52.506;13.462;2022-07-23T07:04:18;17.20;99.90
8463;DHT22;4268;52.506;13.462;2022-07-23T07:06:44;17.10;99.90
8463;DHT22;4268;52.506;13.462;2022-07-23T07:09:09;16.90;99.90
8463;DHT22;4268;52.506;13.462;2022-07-23T07:11:35;17.00;99.90
8463;DHT22;4268;52.506;13.462;2022-07-23T07:14:00;17.00;99.90
8463;DHT22;4268;52.506;13.462;2022-07-23T07:16:26;16.90;99.90
8463;DHT22;4268;52.506;13.462;2022-07-23T07:18:51;16.90;99.90
8463;DHT22;4268;52.506;13.462;2022-07-23T07:21:17;16.90;99.90
8463;DHT22;4268;52.506;13.462;2022-07-23T07:23:42;16.90;99.90
8463;DHT22;4268;52.506;13.462;2022-07-23T07:26:08;17.10;99.90
8463;DHT22;4268;52.506;13.462;2022-07-23T07:28:33;17.10;99.90
8463;DHT22;4268;52.506;13.462;2022-07-23T07:30:59;17.20;99.90
8463;DHT22;4268;52.506;13.462;2022-07-23T07:33:24;17.20;99.90
8463;DHT22;4268;52.506;13.462;2022-07-23T07:35:50;17.30;99.90
8463;DHT22;4268;52.506;13.462;2022-07-23T07:38:15;17.40;99.90
8463;DHT22;4268;52.506;13.462;2022-07-23T07:40:41;17.40;99.90
8463;DHT22;4268;52.506;13.462;2022-07-23T07:43:06;17.50;99.90
8463;DHT22;4268;52.506;13.462;2022-07-23T07:45:32;17.50;99.90
8463;DHT22;4268;52.506;13.462;2022-07-23T07:47:57;17.50;99.90
8463;DHT22;4268;52.506;13.462;2022-07-23T07:50:23;17.70;99.90
8463;DHT22;4268;52.506;13.462;2022-07-23T07:52:49;17.80;99.90
8463;DHT22;4268;52.506;13.462;2022-07-23T07:55:15;17.80;99.90
8463;DHT22;4268;52.506;13.462;2022-07-23T07:57:41;18.10;99.90
8463;DHT22;4268;52.506;13.462;2022-07-23T08:00:08;18.10;99.90
8463;DHT22;4268;52.506;13.462;2022-07-23T08:03:00;18.10;99.90
8463;DHT22;4268;52.506;13.462;2022-07-23T08:05:27;18.10;99.90
8463;DHT22;4268;52.506;13.462;2022-07-23T08:07:59;18.10;99.90
8463;DHT22;4268;52.506;13.462;2022-07-23T08:10:25;18.30;99.90
8463;DHT22;4268;52.506;13.462;2022-07-23T08:12:53;18.50;99.90
8463;DHT22;4268;52.506;13.462;2022-07-23T08:15:21;18.60;99.90
8463;DHT22;4268;52.506;13.462;2022-07-23T08:17:47;18.80;99.90
8463;DHT22;4268;52.506;13.462;2022-07-23T08:20:15;19.00;99.90
8463;DHT22;4268;52.506;13.462;2022-07-23T08:25:10;20.30;99.90
8463;DHT22;4268;52.506;13.462;2022-07-23T08:27:36;20.80;99.90
8463;DHT22;4268;52.506;13.462;2022-07-23T08:30:01;21.20;99.90
8463;DHT22;4268;52.506;13.462;2022-07-23T08:32:27;21.50;99.90
8463;DHT22;4268;52.506;13.462;2022-07-23T08:34:52;21.70;99.90
8463;DHT22;4268;52.506;13.462;2022-07-23T08:37:17;21.90;99.90
8463;DHT22;4268;52.506;13.462;2022-07-23T08:39:43;22.00;99.90
8463;DHT22;4268;52.506;13.462;2022-07-23T08:42:08;22.10;99.90
8463;DHT22;4268;52.506;13.462;2022-07-23T08:44:35;21.80;99.90
8463;DHT22;4268;52.506;13.462;2022-07-23T08:47:01;21.60;99.90
8463;DHT22;4268;52.506;13.462;2022-07-23T08:49:28;21.40;99.90
8463;DHT22;4268;52.506;13.462;2022-07-23T08:51:54;21.30;99.90
8463;DHT22;4268;52.506;13.462;2022-07-23T08:54:21;21.40;99.90
8463;DHT22;4268;52.506;13.462;2022-07-23T08:56:48;21.50;99.90
8463;DHT22;4268;52.506;13.462;2022-07-23T08:59:13;21.40;99.90
8463;DHT22;4268;52.506;13.462;2022-07-23T09:01:39;21.70;99.90
8463;DHT22;4268;52.506;13.462;2022-07-23T09:04:05;21.70;99.90
8463;DHT22;4268;52.506;13.462;2022-07-23T09:06:30;22.00;99.90
8463;DHT22;4268;52.506;13.462;2022-07-23T09:08:56;22.00;99.90
8463;DHT22;4268;52.506;13.462;2022-07-23T09:11:21;22.00;99.90
8463;DHT22;4268;52.506;13.462;2022-07-23T09:13:52;21.90;99.90
8463;DHT22;4268;52.506;13.462;2022-07-23T09:16:27;21.90;99.90
8463;DHT22;4268;52.506;13.462;2022-07-23T09:19:05;21.90;99.90
8463;DHT22;4268;52.506;13.462;2022-07-23T09:21:32;21.90;99.90
8463;DHT22;4268;52.506;13.462;2022-07-23T09:24:02;21.80;99.90
8463;DHT22;4268;52.506;13.462;2022-07-23T09:26:39;21.80;99.90
8463;DHT22;4268;52.506;13.462;2022-07-23T09:29:25;21.80;99.90
8463;DHT22;4268;52.506;13.462;2022-07-23T09:34:24;21.70;99.90
8463;DHT22;4268;52.506;13.462;2022-07-23T09:36:53;21.60;99.90
8463;DHT22;4268;52.506;13.462;2022-07-23T09:39:33;21.60;99.90
8463;DHT22;4268;52.506;13.462;2022-07-23T09:44:47;21.50;99.90
8463;DHT22;4268;52.506;13.462;2022-07-23T09:47:12;21.40;99.90
8463;DHT22;4268;52.506;13.462;2022-07-23T09:49:38;21.40;99.90
8463;DHT22;4268;52.506;13.462;2022-07-23T09:52:04;21.40;99.90
8463;DHT22;4268;52.506;13.462;2022-07-23T09:54:35;21.60;99.90
8463;DHT22;4268;52.506;13.462;2022-07-23T09:59:37;21.80;99.40
8463;DHT22;4268;52.506;13.462;2022-07-23T10:02:05;21.80;98.80
8463;DHT22;4268;52.506;13.462;2022-07-23T10:04:32;21.90;99.40
8463;DHT22;4268;52.506;13.462;2022-07-23T10:07:00;22.10;99.70
8463;DHT22;4268;52.506;13.462;2022-07-23T10:09:31;22.20;98.10
8463;DHT22;4268;52.506;13.462;2022-07-23T10:12:02;22.20;98.30
8463;DHT22;4268;52.506;13.462;2022-07-23T10:14:40;22.10;98.10
8463;DHT22;4268;52.506;13.462;2022-07-23T10:17:07;22.10;98.90
8463;DHT22;4268;52.506;13.462;2022-07-23T10:19:34;22.10;98.20
8463;DHT22;4268;52.506;13.462;2022-07-23T10:22:06;22.00;98.80
8463;DHT22;4268;52.506;13.462;2022-07-23T10:30:05;22.30;97.40
8463;DHT22;4268;52.506;13.462;2022-07-23T10:32:53;22.40;96.20
8463;DHT22;4268;52.506;13.462;2022-07-23T10:35:41;22.30;95.90
8463;DHT22;4268;52.506;13.462;2022-07-23T10:38:15;22.30;95.40
8463;DHT22;4268;52.506;13.462;2022-07-23T10:40:57;22.40;95.50
8463;DHT22;4268;52.506;13.462;2022-07-23T10:43:23;22.40;95.50
8463;DHT22;4268;52.506;13.462;2022-07-23T10:45:49;22.40;95.70
8463;DHT22;4268;52.506;13.462;2022-07-23T10:48:17;22.30;96.00
8463;DHT22;4268;52.506;13.462;2022-07-23T10:50:44;22.40;96.00
8463;DHT22;4268;52.506;13.462;2022-07-23T10:53:12;22.40;96.00
8463;DHT22;4268;52.506;13.462;2022-07-23T10:55:41;22.40;96.20
8463;DHT22;4268;52.506;13.462;2022-07-23T10:58:07;22.40;96.20
8463;DHT22;4268;52.506;13.462;2022-07-23T11:00:34;22.50;96.50
8463;DHT22;4268;52.506;13.462;2022-07-23T11:03:01;22.70;95.70
8463;DHT22;4268;52.506;13.462;2022-07-23T11:05:45;22.70;95.30
8463;DHT22;4268;52.506;13.462;2022-07-23T11:08:13;22.70;95.70
8463;DHT22;4268;52.506;13.462;2022-07-23T11:13:36;22.80;95.50
8463;DHT22;4268;52.506;13.462;2022-07-23T11:24:25;23.20;94.80
8463;DHT22;4268;52.506;13.462;2022-07-23T11:26:59;23.40;94.40
8463;DHT22;4268;52.506;13.462;2022-07-23T11:31:55;23.70;93.70
8463;DHT22;4268;52.506;13.462;2022-07-23T11:34:34;23.60;93.00
8463;DHT22;4268;52.506;13.462;2022-07-23T11:37:05;23.70;93.50
8463;DHT22;4268;52.506;13.462;2022-07-23T11:39:32;23.70;93.00
8463;DHT22;4268;52.506;13.462;2022-07-23T11:41:59;23.90;93.30
8463;DHT22;4268;52.506;13.462;2022-07-23T11:44:26;24.00;92.90
8463;DHT22;4268;52.506;13.462;2022-07-23T11:47:03;24.00;92.10
8463;DHT22;4268;52.506;13.462;2022-07-23T11:49:29;23.90;92.10
8463;DHT22;4268;52.506;13.462;2022-07-23T11:52:13;23.80;92.00
8463;DHT22;4268;52.506;13.462;2022-07-23T11:55:03;23.50;91.90
8463;DHT22;4268;52.506;13.462;2022-07-23T11:57:31;23.50;92.60
8463;DHT22;4268;52.506;13.462;2022-07-23T12:00:11;23.50;92.50
8463;DHT22;4268;52.506;13.462;2022-07-23T12:02:45;23.50;92.70
8463;DHT22;4268;52.506;13.462;2022-07-23T12:05:15;23.50;92.80
8463;DHT22;4268;52.506;13.462;2022-07-23T12:07:46;23.60;92.30
8463;DHT22;4268;52.506;13.462;2022-07-23T12:10:36;23.50;92.00
8463;DHT22;4268;52.506;13.462;2022-07-23T12:13:05;23.30;92.70
8463;DHT22;4268;52.506;13.462;2022-07-23T12:15:34;23.30;92.70
8463;DHT22;4268;52.506;13.462;2022-07-23T12:18:03;23.30;92.90
8463;DHT22;4268;52.506;13.462;2022-07-23T12:20:31;23.40;92.60
8463;DHT22;4268;52.506;13.462;2022-07-23T12:22:59;23.40;92.10
8463;DHT22;4268;52.506;13.462;2022-07-23T12:25:28;23.40;92.40
8463;DHT22;4268;52.506;13.462;2022-07-23T12:28:03;23.60;93.00
8463;DHT22;4268;52.506;13.462;2022-07-23T12:30:32;23.90;92.10
8463;DHT22;4268;52.506;13.462;2022-07-23T12:32:59;23.90;91.50
8463;DHT22;4268;52.506;13.462;2022-07-23T12:35:32;23.90;91.80
8463;DHT22;4268;52.506;13.462;2022-07-23T12:38:01;23.90;92.10
8463;DHT22;4268;52.506;13.462;2022-07-23T12:40:51;24.00;92.00
8463;DHT22;4268;52.506;13.462;2022-07-23T12:43:24;24.20;91.30
8463;DHT22;4268;52.506;13.462;2022-07-23T12:48:26;24.10;91.20
8463;DHT22;4268;52.506;13.462;2022-07-23T12:50:57;23.90;91.40
8463;DHT22;4268;52.506;13.462;2022-07-23T12:53:31;23.80;91.60
8463;DHT22;4268;52.506;13.462;2022-07-23T12:56:18;23.80;91.50
8463;DHT22;4268;52.506;13.462;2022-07-23T12:58:47;23.70;91.20
8463;DHT22;4268;52.506;13.462;2022-07-23T13:04:04;23.60;91.40
8463;DHT22;4268;52.506;13.462;2022-07-23T13:07:16;23.70;91.50
8463;DHT22;4268;52.506;13.462;2022-07-23T13:09:19;23.90;91.40
8463;DHT22;4268;52.506;13.462;2022-07-23T13:11:45;24.20;90.90
8463;DHT22;4268;52.506;13.462;2022-07-23T13:14:12;24.50;91.10
8463;DHT22;4268;52.506;13.462;2022-07-23T13:16:39;24.50;90.50
8463;DHT22;4268;52.506;13.462;2022-07-23T13:19:05;24.50;90.50
8463;DHT22;4268;52.506;13.462;2022-07-23T13:21:32;24.30;89.90
8463;DHT22;4268;52.506;13.462;2022-07-23T13:23:58;24.10;90.00
8463;DHT22;4268;52.506;13.462;2022-07-23T13:26:24;24.00;90.30
8463;DHT22;4268;52.506;13.462;2022-07-23T13:28:50;23.90;90.50
8463;DHT22;4268;52.506;13.462;2022-07-23T13:31:18;23.90;90.50
8463;DHT22;4268;52.506;13.462;2022-07-23T13:33:44;23.90;90.30
8463;DHT22;4268;52.506;13.462;2022-07-23T13:36:10;24.00;90.40
8463;DHT22;4268;52.506;13.462;2022-07-23T13:38:35;23.90;90.00
8463;DHT22;4268;52.506;13.462;2022-07-23T13:41:01;24.00;90.60
8463;DHT22;4268;52.506;13.462;2022-07-23T13:43:28;23.90;90.20
8463;DHT22;4268;52.506;13.462;2022-07-23T13:45:54;23.90;90.20
8463;DHT22;4268;52.506;13.462;2022-07-23T13:48:19;24.00;90.20
8463;DHT22;4268;52.506;13.462;2022-07-23T13:50:46;24.10;90.10
8463;DHT22;4268;52.506;13.462;2022-07-23T13:53:14;24.20;89.30
8463;DHT22;4268;52.506;13.462;2022-07-23T13:55:42;24.30;88.50
8463;DHT22;4268;52.506;13.462;2022-07-23T13:58:08;24.20;89.60
8463;DHT22;4268;52.506;13.462;2022-07-23T14:00:36;24.20;90.10
8463;DHT22;4268;52.506;13.462;2022-07-23T14:03:02;24.20;90.20
8463;DHT22;4268;52.506;13.462;2022-07-23T14:05:27;24.20;89.00
8463;DHT22;4268;52.506;13.462;2022-07-23T14:07:53;24.20;89.00
8463;DHT22;4268;52.506;13.462;2022-07-23T14:10:20;24.30;89.10
8463;DHT22;4268;52.506;13.462;2022-07-23T14:12:47;24.20;89.10
8463;DHT22;4268;52.506;13.462;2022-07-23T14:15:13;24.20;88.50
8463;DHT22;4268;52.506;13.462;2022-07-23T14:17:41;24.10;89.30
8463;DHT22;4268;52.506;13.462;2022-07-23T14:20:07;24.10;90.10
8463;DHT22;4268;52.506;13.462;2022-07-23T14:22:33;24.10;89.00
8463;DHT22;4268;52.506;13.462;2022-07-23T14:24:59;24.20;88.80
8463;DHT22;4268;52.506;13.462;2022-07-23T14:27:26;24.20;88.60
8463;DHT22;4268;52.506;13.462;2022-07-23T14:29:52;24.40;88.20
8463;DHT22;4268;52.506;13.462;2022-07-23T14:32:18;24.60;88.50
8463;DHT22;4268;52.506;13.462;2022-07-23T14:34:43;24.60;86.00
8463;DHT22;4268;52.506;13.462;2022-07-23T14:37:10;24.80;85.60
8463;DHT22;4268;52.506;13.462;2022-07-23T14:39:37;24.70;85.80
8463;DHT22;4268;52.506;13.462;2022-07-23T14:42:03;24.80;85.90
8463;DHT22;4268;52.506;13.462;2022-07-23T14:44:29;24.80;85.20
8463;DHT22;4268;52.506;13.462;2022-07-23T14:46:54;24.80;84.10
8463;DHT22;4268;52.506;13.462;2022-07-23T14:49:20;24.80;83.40
8463;DHT22;4268;52.506;13.462;2022-07-23T14:51:46;24.70;83.20
8463;DHT22;4268;52.506;13.462;2022-07-23T14:54:11;24.60;83.60
8463;DHT22;4268;52.506;13.462;2022-07-23T14:56:37;24.50;83.40
8463;DHT22;4268;52.506;13.462;2022-07-23T14:59:05;24.50;84.70
8463;DHT22;4268;52.506;13.462;2022-07-23T15:01:31;24.50;83.90
8463;DHT22;4268;52.506;13.462;2022-07-23T15:03:56;24.40;83.00
8463;DHT22;4268;52.506;13.462;2022-07-23T15:06:22;24.40;83.30
8463;DHT22;4268;52.506;13.462;2022-07-23T15:08:47;24.40;83.50
8463;DHT22;4268;52.506;13.462;2022-07-23T15:11:13;24.20;83.70
8463;DHT22;4268;52.506;13.462;2022-07-23T15:13:39;24.20;84.10
8463;DHT22;4268;52.506;13.462;2022-07-23T15:16:05;24.00;83.50
8463;DHT22;4268;52.506;13.462;2022-07-23T15:18:31;23.90;84.20
8463;DHT22;4268;52.506;13.462;2022-07-23T15:20:56;23.90;84.50
8463;DHT22;4268;52.506;13.462;2022-07-23T15:23:23;23.90;84.30
8463;DHT22;4268;52.506;13.462;2022-07-23T15:25:48;24.00;84.40
8463;DHT22;4268;52.506;13.462;2022-07-23T15:28:14;24.00;84.00
8463;DHT22;4268;52.506;13.462;2022-07-23T15:30:40;24.00;84.30
8463;DHT22;4268;52.506;13.462;2022-07-23T15:33:05;23.90;83.90
8463;DHT22;4268;52.506;13.462;2022-07-23T15:35:31;24.00;82.80
8463;DHT22;4268;52.506;13.462;2022-07-23T15:37:57;24.00;82.30
8463;DHT22;4268;52.506;13.462;2022-07-23T15:40:23;24.00;82.30
8463;DHT22;4268;52.506;13.462;2022-07-23T15:42:48;24.00;82.00
8463;DHT22;4268;52.506;13.462;2022-07-23T15:45:14;24.00;81.70
8463;DHT22;4268;52.506;13.462;2022-07-23T15:47:40;24.00;82.50
8463;DHT22;4268;52.506;13.462;2022-07-23T15:50:07;24.10;82.10
8463;DHT22;4268;52.506;13.462;2022-07-23T15:52:32;24.20;82.10
8463;DHT22;4268;52.506;13.462;2022-07-23T15:54:58;24.20;81.00
8463;DHT22;4268;52.506;13.462;2022-07-23T15:57:23;24.20;80.60
8463;DHT22;4268;52.506;13.462;2022-07-23T15:59:49;24.30;80.10
8463;DHT22;4268;52.506;13.462;2022-07-23T16:02:14;24.20;80.30
8463;DHT22;4268;52.506;13.462;2022-07-23T16:04:41;24.30;80.00
8463;DHT22;4268;52.506;13.462;2022-07-23T16:07:07;24.30;80.50
8463;DHT22;4268;52.506;13.462;2022-07-23T16:09:32;24.20;79.10
8463;DHT22;4268;52.506;13.462;2022-07-23T16:11:58;24.10;79.10
8463;DHT22;4268;52.506;13.462;2022-07-23T16:14:23;24.10;79.10
8463;DHT22;4268;52.506;13.462;2022-07-23T16:16:49;24.00;79.50
8463;DHT22;4268;52.506;13.462;2022-07-23T16:19:15;23.90;79.70